Time;durP1;ratioP1;P1;durP2;ratioP2;P2;SDS_P1;SDS_P2;PMS_P1;PMS_P2;Temp;Humidity;BMP_temperature;BMP_pressure;BME280_temperature;BME280_humidity;BME280_pressure;Samples;Min_cycle;Max_cycle;Signal;HPM_P1;HPM_P2
2022/09/27 00:00:23;;;;;;;4.55;1.00;;;;;;;;;;5041351;28;20363;-78
2022/09/27 00:02:48;;;;;;;3.97;1.25;;;;;;;;;;5042596;28;20033;-75
2022/09/27 00:05:15;;;;;;;4.18;0.93;;;;;;;;;;5042658;28;20048;-77
2022/09/27 00:07:40;;;;;;;4.57;1.00;;;;;;;;;;5043097;28;20075;-77
2022/09/27 00:10:07;;;;;;;4.97;0.90;;;;;;;;;;5042322;28;20034;-75
2022/09/27 00:12:33;;;;;;;4.20;1.00;;;;;;;;;;5040834;28;20087;-77
2022/09/27 00:15:00;;;;;;;4.57;0.88;;;;;;;;;;5042611;28;20026;-76
2022/09/27 00:17:26;;;;;;;8.18;1.38;;;;;;;;;;5041842;28;20029;-77
2022/09/27 00:19:51;;;;;;;3.30;0.90;;;;;;;;;;5042284;28;20033;-78
2022/09/27 00:22:17;;;;;;;4.50;0.90;;;;;;;;;;5042598;28;20036;-77
2022/09/27 00:24:42;;;;;;;4.97;1.02;;;;;;;;;;5041690;28;20083;-76
2022/09/27 00:27:08;;;;;;;4.93;1.00;;;;;;;;;;5041409;28;20335;-77
2022/09/27 00:29:33;;;;;;;4.07;0.85;;;;;;;;;;5037867;28;20036;-77
2022/09/27 00:31:59;;;;;;;5.00;0.98;;;;;;;;;;5042034;28;20036;-77
2022/09/27 00:34:25;;;;;;;5.57;0.90;;;;;;;;;;5042367;28;20021;-77
2022/09/27 00:36:51;;;;;;;3.97;0.90;;;;;;;;;;5042395;28;20037;-76
2022/09/27 00:39:17;;;;;;;3.00;0.82;;;;;;;;;;5042344;28;20032;-77
2022/09/27 00:41:44;;;;;;;4.82;0.90;;;;;;;;;;5042515;28;20025;-77
2022/09/27 00:44:25;;;;;;;5.13;1.10;;;;;;;;;;5042005;28;20092;-77
2022/09/27 00:47:04;;;;;;;5.50;1.10;;;;;;;;;;5041522;28;20399;-76
2022/09/27 00:49:56;;;;;;;4.38;1.00;;;;;;;;;;5040929;28;20401;-77
2022/09/27 00:52:27;;;;;;;7.47;1.27;;;;;;;;;;5041304;28;20305;-77
2022/09/27 00:55:00;;;;;;;5.47;1.10;;;;;;;;;;5042083;28;20213;-77
2022/09/27 00:57:26;;;;;;;8.77;1.55;;;;;;;;;;5042306;28;20030;-77
2022/09/27 01:00:02;;;;;;;5.97;1.35;;;;;;;;;;5042066;28;20022;-77
2022/09/27 01:02:28;;;;;;;6.20;1.17;;;;;;;;;;5041857;28;20033;-77
2022/09/27 01:04:55;;;;;;;8.68;1.40;;;;;;;;;;5041036;28;20337;-77
2022/09/27 01:07:20;;;;;;;6.82;1.10;;;;;;;;;;5041055;28;20114;-77
2022/09/27 01:09:46;;;;;;;6.55;1.10;;;;;;;;;;5041838;28;20347;-77
2022/09/27 01:12:42;;;;;;;7.05;1.10;;;;;;;;;;5040861;28;20022;-77
2022/09/27 01:15:16;;;;;;;2.67;0.77;;;;;;;;;;5040331;28;20033;-78
2022/09/27 01:18:02;;;;;;;3.35;0.63;;;;;;;;;;5041316;28;20037;-77
2022/09/27 01:20:46;;;;;;;2.50;0.70;;;;;;;;;;5041341;28;20037;-77
2022/09/27 01:23:24;;;;;;;3.55;0.70;;;;;;;;;;5040452;28;20131;-78
2022/09/27 01:26:01;;;;;;;3.30;0.77;;;;;;;;;;5040865;28;20025;-77
2022/09/27 01:28:57;;;;;;;4.85;0.90;;;;;;;;;;5040572;28;20101;-77
2022/09/27 01:31:25;;;;;;;6.57;1.15;;;;;;;;;;5041577;28;20075;-78
2022/09/27 01:34:31;;;;;;;9.38;1.85;;;;;;;;;;5040808;28;20248;-78
2022/09/27 01:37:10;;;;;;;7.43;1.20;;;;;;;;;;5040763;28;20060;-77
2022/09/27 01:39:54;;;;;;;9.77;1.48;;;;;;;;;;5040321;28;20033;-77
2022/09/27 01:42:44;;;;;;;10.05;1.48;;;;;;;;;;5038325;28;20043;-77
2022/09/27 01:45:22;;;;;;;8.45;1.38;;;;;;;;;;5040733;28;20560;-76
2022/09/27 01:47:58;;;;;;;10.90;1.63;;;;;;;;;;5040352;28;20057;-77
2022/09/27 01:50:31;;;;;;;10.57;1.67;;;;;;;;;;5040128;28;20032;-76
2022/09/27 01:53:03;;;;;;;8.98;1.60;;;;;;;;;;5040474;28;20029;-76
2022/09/27 01:55:33;;;;;;;9.73;1.60;;;;;;;;;;5039568;28;20025;-76
2022/09/27 01:58:05;;;;;;;10.35;1.85;;;;;;;;;;5040381;28;20369;-76
2022/09/27 02:00:32;;;;;;;11.77;1.55;;;;;;;;;;5040235;28;20034;-76
2022/09/27 02:03:04;;;;;;;12.63;1.75;;;;;;;;;;5038229;28;20362;-76
2022/09/27 02:05:44;;;;;;;7.50;1.77;;;;;;;;;;5040640;28;20045;-76
2022/09/27 02:08:35;;;;;;;11.90;2.00;;;;;;;;;;5039949;28;20533;-76
2022/09/27 02:11:05;;;;;;;11.73;1.90;;;;;;;;;;5040778;28;20100;-77
2022/09/27 02:13:59;;;;;;;12.60;2.20;;;;;;;;;;5041223;28;20026;-76
2022/09/27 02:16:55;;;;;;;10.13;1.98;;;;;;;;;;5035211;28;20111;-77
2022/09/27 02:19:54;;;;;;;11.55;1.65;;;;;;;;;;5044708;28;20029;-77
2022/09/27 02:22:44;;;;;;;10.35;2.35;;;;;;;;;;5044729;28;20033;-77
2022/09/27 02:25:18;;;;;;;10.07;1.65;;;;;;;;;;5044456;28;20022;-77
2022/09/27 02:27:44;;;;;;;11.10;2.08;;;;;;;;;;5042900;28;20041;-77
2022/09/27 02:30:13;;;;;;;15.57;3.15;;;;;;;;;;5044671;28;20030;-76
2022/09/27 02:32:40;;;;;;;12.60;2.10;;;;;;;;;;5043070;28;20178;-77
2022/09/27 02:35:12;;;;;;;10.57;1.80;;;;;;;;;;5044239;28;20029;-77
2022/09/27 02:37:38;;;;;;;15.07;2.05;;;;;;;;;;5044749;28;20143;-77
2022/09/27 02:40:04;;;;;;;10.77;1.63;;;;;;;;;;5044759;28;20224;-77
2022/09/27 02:42:31;;;;;;;21.35;2.17;;;;;;;;;;5043923;28;20032;-77
2022/09/27 02:44:57;;;;;;;13.90;2.08;;;;;;;;;;5044813;28;20029;-77
2022/09/27 02:47:27;;;;;;;12.23;2.20;;;;;;;;;;5042302;28;20079;-77
2022/09/27 02:49:59;;;;;;;14.10;2.30;;;;;;;;;;5042799;28;20076;-78
2022/09/27 02:52:43;;;;;;;14.75;2.17;;;;;;;;;;5043528;28;20112;-77
2022/09/27 02:55:16;;;;;;;11.20;1.88;;;;;;;;;;5044296;28;20029;-77
2022/09/27 02:57:56;;;;;;;12.45;2.00;;;;;;;;;;5044318;28;20049;-77
2022/09/27 03:00:44;;;;;;;12.27;1.92;;;;;;;;;;5044301;28;20032;-77
2022/09/27 03:03:21;;;;;;;12.50;2.17;;;;;;;;;;5044288;28;20030;-77
2022/09/27 03:05:52;;;;;;;12.93;2.20;;;;;;;;;;5044097;28;20036;-77
2022/09/27 03:08:19;;;;;;;10.82;2.45;;;;;;;;;;5044267;28;20309;-77
2022/09/27 03:10:44;;;;;;;15.88;2.65;;;;;;;;;;5043887;28;20119;-76
2022/09/27 03:13:10;;;;;;;12.68;2.50;;;;;;;;;;5044081;28;20029;-77
2022/09/27 03:15:35;;;;;;;11.05;1.92;;;;;;;;;;5043923;28;20190;-77
2022/09/27 03:18:01;;;;;;;17.48;2.78;;;;;;;;;;5043954;28;20085;-77
2022/09/27 03:20:28;;;;;;;15.88;2.53;;;;;;;;;;5043958;28;20025;-77
2022/09/27 03:22:55;;;;;;;11.85;1.90;;;;;;;;;;5043802;28;20013;-77
2022/09/27 03:25:20;;;;;;;14.02;2.13;;;;;;;;;;5043818;28;20031;-77
2022/09/27 03:27:46;;;;;;;13.65;2.20;;;;;;;;;;5033154;28;20411;-76
2022/09/27 03:30:13;;;;;;;12.68;2.13;;;;;;;;;;5022728;28;20072;-77
2022/09/27 03:32:43;;;;;;;12.57;2.00;;;;;;;;;;5022742;28;20021;-77
2022/09/27 03:35:09;;;;;;;17.48;2.33;;;;;;;;;;5023696;28;20026;-77
2022/09/27 03:37:34;;;;;;;13.30;2.22;;;;;;;;;;5022914;28;20038;-77
2022/09/27 03:40:00;;;;;;;10.88;1.85;;;;;;;;;;5023289;28;20428;-77
2022/09/27 03:42:25;;;;;;;15.30;2.40;;;;;;;;;;5022272;28;20336;-77
2022/09/27 03:44:50;;;;;;;10.18;2.00;;;;;;;;;;5023382;28;20029;-77
2022/09/27 03:47:16;;;;;;;15.82;2.30;;;;;;;;;;5021185;28;20026;-76
2022/09/27 03:49:41;;;;;;;12.27;2.65;;;;;;;;;;5021655;28;20021;-76
2022/09/27 03:52:07;;;;;;;14.18;2.10;;;;;;;;;;5023075;28;20085;-77
2022/09/27 03:54:32;;;;;;;16.08;2.50;;;;;;;;;;5023372;28;20064;-76
2022/09/27 03:56:58;;;;;;;13.02;2.22;;;;;;;;;;5022702;28;20028;-77
2022/09/27 03:59:23;;;;;;;10.30;2.13;;;;;;;;;;5021664;28;20026;-77
2022/09/27 04:01:49;;;;;;;13.05;2.25;;;;;;;;;;5022976;28;20080;-77
2022/09/27 04:04:14;;;;;;;12.63;2.10;;;;;;;;;;5023118;28;20034;-76
2022/09/27 04:06:39;;;;;;;11.68;2.08;;;;;;;;;;5022583;28;20199;-76
2022/09/27 04:09:05;;;;;;;14.48;1.90;;;;;;;;;;5021990;28;20026;-77
2022/09/27 04:11:30;;;;;;;10.43;2.00;;;;;;;;;;5022420;28;20044;-77
2022/09/27 04:13:56;;;;;;;13.40;1.95;;;;;;;;;;5022486;28;20048;-76
2022/09/27 04:16:22;;;;;;;10.75;2.13;;;;;;;;;;5021670;28;20018;-76
2022/09/27 04:18:47;;;;;;;11.10;2.00;;;;;;;;;;5020905;28;20101;-76
2022/09/27 04:21:13;;;;;;;13.82;1.80;;;;;;;;;;5020449;28;20025;-76
2022/09/27 04:23:38;;;;;;;15.20;2.20;;;;;;;;;;5020930;28;20061;-76
2022/09/27 04:26:04;;;;;;;14.52;2.33;;;;;;;;;;5018436;28;20077;-76
2022/09/27 04:28:30;;;;;;;11.77;2.10;;;;;;;;;;5019695;28;20030;-77
2022/09/27 04:30:56;;;;;;;12.30;2.20;;;;;;;;;;5018276;28;20032;-76
2022/09/27 04:33:22;;;;;;;13.68;2.17;;;;;;;;;;5019741;28;20026;-76
2022/09/27 04:38:32;;;;;;;12.25;2.20;;;;;;;;;;5021104;28;20068;-77
2022/09/27 04:41:00;;;;;;;14.05;2.22;;;;;;;;;;5021456;28;20033;-76
2022/09/27 04:43:27;;;;;;;14.45;2.15;;;;;;;;;;5019925;28;20026;-76
2022/09/27 04:45:52;;;;;;;13.07;2.22;;;;;;;;;;5021278;28;20069;-76
2022/09/27 04:48:17;;;;;;;14.85;2.30;;;;;;;;;;5018437;28;20038;-76
2022/09/27 04:50:43;;;;;;;15.25;2.08;;;;;;;;;;5019090;28;20030;-76
2022/09/27 04:53:13;;;;;;;19.25;2.72;;;;;;;;;;5019159;28;20171;-76
2022/09/27 04:55:38;;;;;;;14.32;2.10;;;;;;;;;;5018471;28;20118;-76
2022/09/27 04:58:04;;;;;;;12.15;2.30;;;;;;;;;;5016240;28;20044;-76
2022/09/27 05:00:30;;;;;;;11.45;1.92;;;;;;;;;;5015402;28;20344;-76
2022/09/27 05:02:56;;;;;;;17.30;2.53;;;;;;;;;;5020779;28;20033;-76
2022/09/27 05:05:21;;;;;;;15.10;2.35;;;;;;;;;;5017835;28;20026;-76
2022/09/27 05:07:47;;;;;;;17.80;2.40;;;;;;;;;;5018388;28;20100;-77
2022/09/27 05:10:12;;;;;;;17.23;2.53;;;;;;;;;;5018005;28;20444;-77
2022/09/27 05:12:38;;;;;;;20.75;2.70;;;;;;;;;;5013567;28;20528;-77
2022/09/27 05:15:04;;;;;;;19.98;2.47;;;;;;;;;;5015583;28;20447;-77
2022/09/27 05:17:29;;;;;;;18.65;2.55;;;;;;;;;;5016702;28;20273;-76
2022/09/27 05:19:55;;;;;;;18.10;2.65;;;;;;;;;;5020147;28;20317;-77
2022/09/27 05:22:20;;;;;;;17.70;2.60;;;;;;;;;;5021262;28;20352;-77
2022/09/27 05:24:46;;;;;;;15.88;2.47;;;;;;;;;;5019896;28;20086;-77
2022/09/27 05:27:17;;;;;;;21.48;3.03;;;;;;;;;;5017014;28;20325;-76
2022/09/27 05:29:43;;;;;;;20.10;2.30;;;;;;;;;;5020909;28;20053;-77
2022/09/27 05:32:09;;;;;;;16.33;2.72;;;;;;;;;;5019073;28;20209;-76
2022/09/27 05:34:34;;;;;;;16.10;2.60;;;;;;;;;;5020646;28;20026;-76
2022/09/27 05:37:00;;;;;;;19.05;2.85;;;;;;;;;;5016655;28;20030;-76
2022/09/27 05:39:25;;;;;;;15.73;2.85;;;;;;;;;;5020061;28;20049;-76
2022/09/27 05:41:54;;;;;;;16.80;2.60;;;;;;;;;;5018364;28;20037;-76
2022/09/27 05:44:19;;;;;;;17.02;2.58;;;;;;;;;;5018170;28;20502;-76
2022/09/27 05:46:45;;;;;;;13.95;2.28;;;;;;;;;;5020576;28;20022;-76
2022/09/27 05:49:10;;;;;;;18.85;2.92;;;;;;;;;;5020557;28;20107;-76
2022/09/27 05:51:36;;;;;;;17.05;2.33;;;;;;;;;;5021793;28;20033;-77
2022/09/27 05:54:02;;;;;;;16.92;2.22;;;;;;;;;;5024967;28;20256;-78
2022/09/27 05:56:27;;;;;;;13.85;2.30;;;;;;;;;;5024753;28;20056;-77
2022/09/27 05:58:53;;;;;;;19.80;2.40;;;;;;;;;;5025861;28;20029;-75
2022/09/27 06:01:18;;;;;;;24.50;2.90;;;;;;;;;;5025921;28;20033;-77
2022/09/27 06:03:45;;;;;;;16.20;2.17;;;;;;;;;;5025612;28;20050;-74
2022/09/27 06:06:10;;;;;;;21.25;2.53;;;;;;;;;;5045567;28;20029;-74
2022/09/27 06:08:37;;;;;;;19.92;2.42;;;;;;;;;;5044458;28;20110;-73
2022/09/27 06:11:05;;;;;;;22.20;2.53;;;;;;;;;;5045530;28;20068;-80
2022/09/27 06:13:40;;;;;;;16.42;2.28;;;;;;;;;;5045320;28;20045;-75
2022/09/27 06:16:08;;;;;;;17.42;2.55;;;;;;;;;;5045463;28;20270;-73
2022/09/27 06:18:34;;;;;;;15.57;2.53;;;;;;;;;;5044637;28;20033;-73
2022/09/27 06:21:01;;;;;;;15.05;2.25;;;;;;;;;;5043725;28;20025;-74
2022/09/27 06:23:27;;;;;;;14.73;2.28;;;;;;;;;;5052050;28;20033;-74
2022/09/27 06:25:53;;;;;;;17.77;3.05;;;;;;;;;;5054668;28;20079;-74
2022/09/27 06:28:19;;;;;;;15.05;2.47;;;;;;;;;;5043200;28;20033;-75
2022/09/27 06:30:47;;;;;;;15.75;2.40;;;;;;;;;;5042607;28;20340;-73
2022/09/27 06:33:16;;;;;;;15.35;2.13;;;;;;;;;;5043250;28;20078;-78
2022/09/27 06:35:44;;;;;;;18.50;2.80;;;;;;;;;;5044838;28;20037;-80
2022/09/27 06:38:11;;;;;;;16.55;2.63;;;;;;;;;;5044377;28;20209;-76
2022/09/27 06:40:37;;;;;;;18.02;2.45;;;;;;;;;;5043283;28;20056;-77
2022/09/27 06:43:07;;;;;;;21.35;2.55;;;;;;;;;;5044394;28;20021;-74
2022/09/27 06:45:34;;;;;;;16.00;2.45;;;;;;;;;;5044434;28;20325;-79
2022/09/27 06:48:01;;;;;;;13.10;2.25;;;;;;;;;;5044071;28;20030;-77
2022/09/27 06:50:28;;;;;;;19.77;2.47;;;;;;;;;;5044457;28;20029;-81
2022/09/27 06:52:54;;;;;;;15.30;2.55;;;;;;;;;;5043272;28;20017;-79
2022/09/27 06:55:19;;;;;;;18.05;2.38;;;;;;;;;;5043864;28;20025;-73
2022/09/27 07:00:29;;;;;;;18.27;2.50;;;;;;;;;;5044069;28;20035;-73
2022/09/27 07:03:07;;;;;;;15.73;2.50;;;;;;;;;;5044593;28;20029;-74
2022/09/27 07:05:32;;;;;;;21.23;2.78;;;;;;;;;;5044378;28;20037;-75
2022/09/27 07:07:57;;;;;;;15.70;2.15;;;;;;;;;;5046109;28;20021;-75
2022/09/27 07:10:28;;;;;;;16.98;2.55;;;;;;;;;;5052013;28;20045;-74
2022/09/27 07:12:55;;;;;;;18.37;2.93;;;;;;;;;;5059469;28;20217;-74
2022/09/27 07:15:22;;;;;;;18.35;2.75;;;;;;;;;;5063421;28;20033;-75
2022/09/27 07:17:55;;;;;;;13.93;2.45;;;;;;;;;;5043302;28;20076;-75
2022/09/27 07:20:20;;;;;;;18.10;2.83;;;;;;;;;;5043448;28;20033;-76
2022/09/27 07:22:45;;;;;;;15.65;2.28;;;;;;;;;;5043528;28;20081;-74
2022/09/27 07:25:11;;;;;;;17.90;2.83;;;;;;;;;;5041743;28;20025;-74
2022/09/27 07:27:37;;;;;;;20.65;2.60;;;;;;;;;;5043343;28;20255;-76
2022/09/27 07:30:03;;;;;;;11.80;2.33;;;;;;;;;;5038855;28;20321;-75
2022/09/27 07:32:29;;;;;;;13.68;2.20;;;;;;;;;;5013508;28;20057;-75
2022/09/27 07:34:54;;;;;;;17.80;2.60;;;;;;;;;;5023813;28;20027;-75
2022/09/27 07:37:19;;;;;;;17.52;2.70;;;;;;;;;;5033577;28;20053;-76
2022/09/27 07:39:45;;;;;;;16.20;2.30;;;;;;;;;;5031313;28;20072;-75
2022/09/27 07:42:10;;;;;;;24.45;2.85;;;;;;;;;;5030717;28;20485;-75
2022/09/27 07:44:36;;;;;;;13.63;2.50;;;;;;;;;;5031232;28;20036;-75
2022/09/27 07:47:05;;;;;;;14.57;2.40;;;;;;;;;;5030453;28;20127;-75
2022/09/27 07:49:30;;;;;;;18.80;3.08;;;;;;;;;;5030254;28;20401;-75
2022/09/27 07:51:56;;;;;;;21.23;2.60;;;;;;;;;;5031836;28;20022;-75
2022/09/27 07:54:21;;;;;;;16.40;2.40;;;;;;;;;;5030981;28;20017;-74
2022/09/27 07:56:47;;;;;;;19.33;2.65;;;;;;;;;;5032606;28;20032;-74
2022/09/27 07:59:12;;;;;;;14.23;2.60;;;;;;;;;;5033820;28;20032;-75
2022/09/27 08:01:38;;;;;;;15.77;2.63;;;;;;;;;;5032195;28;20392;-75
2022/09/27 08:04:04;;;;;;;20.38;2.88;;;;;;;;;;5031794;28;20049;-75
2022/09/27 08:06:29;;;;;;;16.50;3.25;;;;;;;;;;5032025;28;20040;-74
2022/09/27 08:08:56;;;;;;;14.30;2.53;;;;;;;;;;5034216;28;20112;-75
2022/09/27 08:11:21;;;;;;;23.42;3.50;;;;;;;;;;5032293;28;20084;-74
2022/09/27 08:13:48;;;;;;;19.95;2.80;;;;;;;;;;5032772;28;20045;-74
2022/09/27 08:16:14;;;;;;;17.42;2.85;;;;;;;;;;5031526;28;20064;-75
2022/09/27 08:18:40;;;;;;;22.52;3.78;;;;;;;;;;5031994;28;20053;-74
2022/09/27 08:21:05;;;;;;;17.25;2.95;;;;;;;;;;5032343;28;20661;-74
2022/09/27 08:23:31;;;;;;;20.27;3.17;;;;;;;;;;5032373;28;20025;-75
2022/09/27 08:25:58;;;;;;;18.30;3.08;;;;;;;;;;5031692;28;20247;-75
2022/09/27 08:28:25;;;;;;;16.92;2.92;;;;;;;;;;5031751;28;20034;-75
2022/09/27 08:30:50;;;;;;;22.88;3.13;;;;;;;;;;5031575;28;20048;-74
2022/09/27 08:33:16;;;;;;;18.92;2.65;;;;;;;;;;5035184;28;20033;-74
2022/09/27 08:35:42;;;;;;;15.30;2.60;;;;;;;;;;5031810;28;20547;-74
2022/09/27 08:38:08;;;;;;;18.05;2.70;;;;;;;;;;5032217;28;20025;-74
2022/09/27 08:40:50;;;;;;;17.50;2.85;;;;;;;;;;5031269;28;20041;-74
2022/09/27 08:43:41;;;;;;;14.98;2.40;;;;;;;;;;5031078;28;20048;-74
2022/09/27 08:46:15;;;;;;;14.48;2.58;;;;;;;;;;5030001;28;20064;-75
2022/09/27 08:48:43;;;;;;;15.98;2.92;;;;;;;;;;5030958;28;20409;-74
2022/09/27 08:51:12;;;;;;;14.32;2.50;;;;;;;;;;5031427;28;20643;-74
2022/09/27 08:53:45;;;;;;;20.13;2.92;;;;;;;;;;5031142;28;20083;-74
2022/09/27 08:56:11;;;;;;;21.02;3.05;;;;;;;;;;5030950;28;20036;-74
2022/09/27 08:58:49;;;;;;;17.00;2.92;;;;;;;;;;5030820;28;20056;-74
2022/09/27 09:01:15;;;;;;;20.85;2.70;;;;;;;;;;5030634;28;20037;-74
2022/09/27 09:03:53;;;;;;;22.52;3.20;;;;;;;;;;5030653;28;20053;-74
2022/09/27 09:06:34;;;;;;;20.98;3.25;;;;;;;;;;5030584;28;20061;-74
2022/09/27 09:09:26;;;;;;;18.52;2.60;;;;;;;;;;5031413;28;20052;-74
2022/09/27 09:15:12;;;;;;;18.85;2.85;;;;;;;;;;5030517;28;20132;-74
2022/09/27 09:17:52;;;;;;;19.95;3.03;;;;;;;;;;5030315;28;20100;-74
2022/09/27 09:20:42;;;;;;;20.65;2.67;;;;;;;;;;5030458;28;20039;-74
2022/09/27 09:23:21;;;;;;;17.05;3.03;;;;;;;;;;5030849;28;20033;-74
2022/09/27 09:25:59;;;;;;;16.60;2.35;;;;;;;;;;5029764;28;20404;-74
2022/09/27 09:28:33;;;;;;;17.27;2.80;;;;;;;;;;5029801;28;20025;-74
2022/09/27 09:31:26;;;;;;;16.23;2.72;;;;;;;;;;5030780;28;20079;-74
2022/09/27 09:33:57;;;;;;;16.17;2.33;;;;;;;;;;5035074;28;20076;-74
2022/09/27 09:36:36;;;;;;;15.02;2.58;;;;;;;;;;5041268;28;20029;-74
2022/09/27 09:39:07;;;;;;;16.33;2.28;;;;;;;;;;5042436;28;20025;-74
2022/09/27 09:41:44;;;;;;;17.35;2.92;;;;;;;;;;5041113;28;20053;-73
2022/09/27 09:44:29;;;;;;;14.98;2.47;;;;;;;;;;5035936;28;20017;-73
2022/09/27 09:46:58;;;;;;;14.90;2.45;;;;;;;;;;5039959;28;20088;-73
2022/09/27 09:49:32;;;;;;;18.92;2.28;;;;;;;;;;5039089;28;20201;-73
2022/09/27 09:52:03;;;;;;;12.68;2.10;;;;;;;;;;5037040;28;20061;-73
2022/09/27 09:54:37;;;;;;;14.30;2.10;;;;;;;;;;5035735;28;20033;-73
2022/09/27 09:57:07;;;;;;;13.32;2.72;;;;;;;;;;5049297;28;20032;-72
2022/09/27 09:59:54;;;;;;;17.17;2.70;;;;;;;;;;5033885;28;20424;-73
2022/09/27 10:02:31;;;;;;;10.23;1.90;;;;;;;;;;5035359;28;20067;-74
2022/09/27 10:04:57;;;;;;;13.63;1.98;;;;;;;;;;5033009;28;20052;-76
2022/09/27 10:07:23;;;;;;;15.80;1.90;;;;;;;;;;5033706;28;20055;-74
2022/09/27 10:09:52;;;;;;;12.82;2.00;;;;;;;;;;5030550;28;20026;-79
2022/09/27 10:12:17;;;;;;;16.33;2.40;;;;;;;;;;5031787;28;20021;-74
2022/09/27 10:14:46;;;;;;;12.85;1.98;;;;;;;;;;5031546;28;20026;-72
2022/09/27 10:17:16;;;;;;;16.92;2.03;;;;;;;;;;5036132;28;20025;-77
2022/09/27 10:19:44;;;;;;;17.05;2.28;;;;;;;;;;5037903;28;20052;-80
2022/09/27 10:22:18;;;;;;;12.65;2.05;;;;;;;;;;5036993;28;20400;-79
2022/09/27 10:25:05;;;;;;;14.10;2.35;;;;;;;;;;5036790;28;20083;-83
2022/09/27 10:27:44;;;;;;;13.73;2.50;;;;;;;;;;5037485;28;20428;-78
2022/09/27 10:30:31;;;;;;;14.60;2.60;;;;;;;;;;5033516;28;20040;-79
2022/09/27 10:33:05;;;;;;;12.02;1.80;;;;;;;;;;5034287;28;20229;-82
2022/09/27 10:35:37;;;;;;;13.93;2.08;;;;;;;;;;5034981;28;20076;-76
2022/09/27 10:38:21;;;;;;;16.27;2.13;;;;;;;;;;5034778;28;20113;-75
2022/09/27 10:40:51;;;;;;;10.18;2.00;;;;;;;;;;5033473;28;20470;-74
2022/09/27 10:43:32;;;;;;;12.32;1.58;;;;;;;;;;5035233;28;20021;-78
2022/09/27 10:46:06;;;;;;;14.07;1.80;;;;;;;;;;5033185;28;20335;-75
2022/09/27 10:48:32;;;;;;;9.85;1.70;;;;;;;;;;5037373;28;20036;-74
2022/09/27 10:51:03;;;;;;;9.60;1.95;;;;;;;;;;5038162;28;20021;-75
2022/09/27 10:53:30;;;;;;;12.52;1.70;;;;;;;;;;5034015;28;20028;-74
2022/09/27 10:55:56;;;;;;;10.50;1.75;;;;;;;;;;5040384;28;20092;-75
2022/09/27 10:58:30;;;;;;;12.23;1.73;;;;;;;;;;5039486;28;20079;-75
2022/09/27 11:01:02;;;;;;;8.27;1.50;;;;;;;;;;5040551;28;20032;-75
2022/09/27 11:03:34;;;;;;;9.38;1.95;;;;;;;;;;5037752;28;20060;-74
2022/09/27 11:05:59;;;;;;;9.70;1.83;;;;;;;;;;5045123;28;20032;-75
2022/09/27 11:08:32;;;;;;;9.23;1.42;;;;;;;;;;5046203;28;20033;-75
2022/09/27 11:11:13;;;;;;;12.18;1.48;;;;;;;;;;5046699;28;20057;-75
2022/09/27 11:13:39;;;;;;;12.10;1.40;;;;;;;;;;5043201;28;20096;-73
2022/09/27 11:16:15;;;;;;;10.35;1.80;;;;;;;;;;5044319;28;20033;-73
2022/09/27 11:19:12;;;;;;;8.63;1.60;;;;;;;;;;5027958;28;20072;-77
2022/09/27 11:21:49;;;;;;;11.15;1.70;;;;;;;;;;5040554;28;20076;-74
2022/09/27 11:24:18;;;;;;;9.10;1.70;;;;;;;;;;5036013;28;20038;-76
2022/09/27 11:27:20;;;;;;;11.25;1.58;;;;;;;;;;5037265;28;20072;-73
2022/09/27 11:30:00;;;;;;;9.38;1.80;;;;;;;;;;5035652;28;20432;-73
2022/09/27 11:32:40;;;;;;;10.65;1.40;;;;;;;;;;5036020;28;20026;-73
2022/09/27 11:35:15;;;;;;;8.73;1.57;;;;;;;;;;5031832;28;20037;-74
2022/09/27 11:38:05;;;;;;;7.07;1.83;;;;;;;;;;5036490;28;20025;-73
2022/09/27 11:40:39;;;;;;;13.45;1.58;;;;;;;;;;5051916;28;20037;-74
2022/09/27 11:43:26;;;;;;;7.85;1.42;;;;;;;;;;5043037;28;20041;-76
2022/09/27 11:46:00;;;;;;;10.43;1.50;;;;;;;;;;5043216;28;20029;-76
2022/09/27 11:49:03;;;;;;;8.77;1.25;;;;;;;;;;5042549;28;20021;-75
2022/09/27 11:51:58;;;;;;;13.00;1.58;;;;;;;;;;5042262;28;20335;-75
2022/09/27 11:54:56;;;;;;;10.98;1.50;;;;;;;;;;5033709;28;20094;-76
2022/09/27 11:57:54;;;;;;;7.22;1.50;;;;;;;;;;5039540;28;20033;-75
2022/09/27 12:00:29;;;;;;;9.77;1.48;;;;;;;;;;5031057;28;20065;-74
2022/09/27 12:02:55;;;;;;;7.75;1.35;;;;;;;;;;5026327;28;20034;-75
2022/09/27 12:05:26;;;;;;;6.07;1.48;;;;;;;;;;5038587;28;20046;-76
2022/09/27 12:08:09;;;;;;;7.63;1.48;;;;;;;;;;5030007;28;20386;-75
2022/09/27 12:10:38;;;;;;;5.97;1.23;;;;;;;;;;5030402;28;20022;-75
2022/09/27 12:13:04;;;;;;;7.80;1.65;;;;;;;;;;5027477;28;20087;-75
2022/09/27 12:15:38;;;;;;;8.15;1.58;;;;;;;;;;5045327;28;20021;-74
2022/09/27 12:18:15;;;;;;;8.82;1.40;;;;;;;;;;5029695;28;20473;-75
2022/09/27 12:20:42;;;;;;;8.07;1.15;;;;;;;;;;5029890;28;20040;-75
2022/09/27 12:23:20;;;;;;;7.55;1.50;;;;;;;;;;5028653;28;20025;-75
2022/09/27 12:25:51;;;;;;;11.00;1.55;;;;;;;;;;5029983;28;20029;-74
2022/09/27 12:28:39;;;;;;;12.55;2.00;;;;;;;;;;5030969;28;20026;-75
2022/09/27 12:31:15;;;;;;;9.95;1.58;;;;;;;;;;5020276;28;20133;-74
2022/09/27 12:33:53;;;;;;;11.20;1.50;;;;;;;;;;5011506;28;20030;-75
2022/09/27 12:36:22;;;;;;;5.55;1.10;;;;;;;;;;5011819;28;20034;-76
2022/09/27 12:39:29;;;;;;;9.07;1.33;;;;;;;;;;5011660;28;20559;-74
2022/09/27 12:42:05;;;;;;;8.88;1.35;;;;;;;;;;5011743;28;20418;-74
2022/09/27 12:44:40;;;;;;;7.68;1.05;;;;;;;;;;5011565;28;20061;-75
2022/09/27 12:47:12;;;;;;;6.50;1.40;;;;;;;;;;5011468;28;20467;-74
2022/09/27 12:49:47;;;;;;;8.15;1.13;;;;;;;;;;5011149;28;20060;-75
2022/09/27 12:52:22;;;;;;;10.85;1.70;;;;;;;;;;5011358;28;20109;-74
2022/09/27 12:55:14;;;;;;;6.55;1.30;;;;;;;;;;5011713;28;20030;-75
2022/09/27 12:57:40;;;;;;;10.00;1.38;;;;;;;;;;5009990;28;20030;-75
2022/09/27 13:00:09;;;;;;;5.75;1.17;;;;;;;;;;5011426;28;20046;-75
2022/09/27 13:03:08;;;;;;;7.72;1.20;;;;;;;;;;5010907;28;20454;-76
2022/09/27 13:06:22;;;;;;;7.28;1.25;;;;;;;;;;5011353;28;20049;-75
2022/09/27 13:09:06;;;;;;;6.95;1.10;;;;;;;;;;4969407;28;20117;-77
2022/09/27 13:12:03;;;;;;;5.90;1.10;;;;;;;;;;4969762;28;20079;-76
2022/09/27 13:14:33;;;;;;;5.65;1.10;;;;;;;;;;5002867;28;20038;-77
2022/09/27 13:16:58;;;;;;;4.90;1.00;;;;;;;;;;5011252;28;20425;-75
2022/09/27 13:19:38;;;;;;;5.20;0.93;;;;;;;;;;5010824;28;20088;-75
2022/09/27 13:22:30;;;;;;;8.73;1.25;;;;;;;;;;5009741;28;20026;-74
2022/09/27 13:24:55;;;;;;;7.15;1.05;;;;;;;;;;5008622;28;20397;-74
2022/09/27 13:27:27;;;;;;;4.32;0.98;;;;;;;;;;5010994;28;20109;-75
2022/09/27 13:30:07;;;;;;;7.10;1.10;;;;;;;;;;5010851;28;20065;-73
2022/09/27 13:32:35;;;;;;;;;;;;;;;;;;5011342;28;20038;-73
2022/09/27 13:35:24;;;;;;;5.60;1.20;;;;;;;;;;5010548;28;19913;-75
2022/09/27 13:38:00;;;;;;;9.18;1.33;;;;;;;;;;5031132;28;20086;-76
2022/09/27 13:40:32;;;;;;;6.47;1.20;;;;;;;;;;5021917;28;20034;-75
2022/09/27 13:43:09;;;;;;;5.78;1.13;;;;;;;;;;5036480;28;20043;-77
2022/09/27 13:45:48;;;;;;;8.77;1.33;;;;;;;;;;5029536;28;20943;-76
2022/09/27 13:48:19;;;;;;;7.82;1.50;;;;;;;;;;5030828;28;20071;-76
2022/09/27 13:50:50;;;;;;;5.80;1.48;;;;;;;;;;5034514;28;20040;-75
2022/09/27 13:53:27;;;;;;;6.45;1.10;;;;;;;;;;5039731;28;20058;-75
2022/09/27 13:55:53;;;;;;;7.07;1.20;;;;;;;;;;5039048;28;20053;-75
2022/09/27 13:58:18;;;;;;;6.32;1.30;;;;;;;;;;5040753;28;20049;-75
2022/09/27 14:00:57;;;;;;;10.65;1.50;;;;;;;;;;5039691;28;20033;-76
2022/09/27 14:03:50;;;;;;;9.80;1.55;;;;;;;;;;5035347;28;20049;-77
2022/09/27 14:06:24;;;;;;;10.38;1.73;;;;;;;;;;5019962;28;20124;-75
2022/09/27 14:08:57;;;;;;;10.32;1.40;;;;;;;;;;5030515;28;20064;-74
2022/09/27 14:11:37;;;;;;;7.93;1.38;;;;;;;;;;5034750;28;20056;-77
2022/09/27 14:14:05;;;;;;;10.63;1.50;;;;;;;;;;5040467;28;20017;-82
2022/09/27 14:16:35;;;;;;;9.02;1.42;;;;;;;;;;5043797;28;20037;-77
2022/09/27 14:19:01;;;;;;;4.97;1.30;;;;;;;;;;5044602;28;20328;-78
2022/09/27 14:21:36;;;;;;;9.32;1.20;;;;;;;;;;5044195;28;20029;-75
2022/09/27 14:24:27;;;;;;;7.35;1.20;;;;;;;;;;5043152;28;20099;-74
2022/09/27 14:27:13;;;;;;;8.85;1.77;;;;;;;;;;5043378;28;20348;-74
2022/09/27 14:29:53;;;;;;;5.57;1.60;;;;;;;;;;5042764;28;20066;-73
2022/09/27 14:32:21;;;;;;;7.03;1.42;;;;;;;;;;5043924;28;20044;-75
2022/09/27 14:38:01;;;;;;;9.15;1.80;;;;;;;;;;5043468;28;20201;-78
2022/09/27 14:40:27;;;;;;;7.50;1.40;;;;;;;;;;5042689;28;20341;-75
2022/09/27 14:42:58;;;;;;;12.43;1.48;;;;;;;;;;5043571;28;20025;-74
2022/09/27 14:45:33;;;;;;;8.02;1.50;;;;;;;;;;5057524;28;20013;-75
2022/09/27 14:47:59;;;;;;;9.48;1.50;;;;;;;;;;5040672;28;20138;-73
2022/09/27 14:50:29;;;;;;;8.00;1.83;;;;;;;;;;5041420;28;20084;-73
2022/09/27 14:53:00;;;;;;;8.52;2.28;;;;;;;;;;5039764;28;20048;-74
2022/09/27 14:55:28;;;;;;;6.38;1.42;;;;;;;;;;5017838;28;20026;-74
2022/09/27 14:57:57;;;;;;;7.63;1.52;;;;;;;;;;5032798;28;20355;-74
2022/09/27 15:00:33;;;;;;;7.18;1.65;;;;;;;;;;5028796;28;20021;-74
2022/09/27 15:03:02;;;;;;;8.88;1.40;;;;;;;;;;5040746;28;20056;-74
2022/09/27 15:05:31;;;;;;;7.05;1.58;;;;;;;;;;5039730;28;20116;-73
2022/09/27 15:08:00;;;;;;;6.60;1.60;;;;;;;;;;5036369;28;20025;-73
2022/09/27 15:10:30;;;;;;;7.72;1.65;;;;;;;;;;5036817;28;20031;-73
2022/09/27 15:12:59;;;;;;;9.90;1.60;;;;;;;;;;5034571;28;20029;-73
2022/09/27 15:15:31;;;;;;;7.32;1.70;;;;;;;;;;5039630;28;20029;-73